sensor_id;sensor_type;location;lat;lon;timestamp;pressure;altitude;pressure_sealevel;temperature
63297;BMP280;49419;51.716;-4.948;2022-07-03T00:01:55;101462.34;;;17.47
63297;BMP280;49419;51.716;-4.948;2022-07-03T00:04:23;101460.69;;;17.49
63297;BMP280;49419;51.716;-4.948;2022-07-03T00:06:49;101457.16;;;17.47
63297;BMP280;49419;51.716;-4.948;2022-07-03T00:09:15;101446.63;;;17.40
63297;BMP280;49419;51.716;-4.948;2022-07-03T00:11:44;101442.25;;;17.39
63297;BMP280;49419;51.716;-4.948;2022-07-03T00:14:17;101445.56;;;17.32
63297;BMP280;49419;51.716;-4.948;2022-07-03T00:16:51;101444.69;;;17.30
63297;BMP280;49419;51.716;-4.948;2022-07-03T00:19:23;101447.28;;;17.32
63297;BMP280;49419;51.716;-4.948;2022-07-03T00:21:56;101458.53;;;17.31
63297;BMP280;49419;51.716;-4.948;2022-07-03T00:24:32;101455.06;;;17.32
63297;BMP280;49419;51.716;-4.948;2022-07-03T00:26:58;101454.22;;;17.31
63297;BMP280;49419;51.716;-4.948;2022-07-03T00:29:29;101448.91;;;17.25
63297;BMP280;49419;51.716;-4.948;2022-07-03T00:31:57;101457.56;;;17.26
63297;BMP280;49419;51.716;-4.948;2022-07-03T00:34:26;101454.97;;;17.26
63297;BMP280;49419;51.716;-4.948;2022-07-03T00:36:52;101463.72;;;17.31
63297;BMP280;49419;51.716;-4.948;2022-07-03T00:39:18;101454.16;;;17.28
63297;BMP280;49419;51.716;-4.948;2022-07-03T00:41:44;101460.22;;;17.29
63297;BMP280;49419;51.716;-4.948;2022-07-03T00:44:15;101451.56;;;17.30
63297;BMP280;49419;51.716;-4.948;2022-07-03T00:46:48;101448.97;;;17.30
63297;BMP280;49419;51.716;-4.948;2022-07-03T00:49:17;101445.56;;;17.32
63297;BMP280;49419;51.716;-4.948;2022-07-03T00:51:51;101451.66;;;17.34
63297;BMP280;49419;51.716;-4.948;2022-07-03T00:54:22;101450.75;;;17.31
63297;BMP280;49419;51.716;-4.948;2022-07-03T00:56:54;101451.72;;;17.36
63297;BMP280;49419;51.716;-4.948;2022-07-03T00:59:20;101456.00;;;17.34
63297;BMP280;49419;51.716;-4.948;2022-07-03T01:01:47;101449.88;;;17.32
63297;BMP280;49419;51.716;-4.948;2022-07-03T01:13:08;101461.88;;;17.25
63297;BMP280;49419;51.716;-4.948;2022-07-03T01:16:05;101449.63;;;17.20
63297;BMP280;49419;51.716;-4.948;2022-07-03T01:18:35;101459.28;;;17.25
63297;BMP280;49419;51.716;-4.948;2022-07-03T01:27:02;101470.38;;;17.20
63297;BMP280;49419;51.716;-4.948;2022-07-03T01:32:15;101466.88;;;17.18
63297;BMP280;49419;51.716;-4.948;2022-07-03T01:34:43;101467.66;;;17.15
63297;BMP280;49419;51.716;-4.948;2022-07-03T01:37:14;101466.75;;;17.12
63297;BMP280;49419;51.716;-4.948;2022-07-03T01:39:46;101466.66;;;17.09
63297;BMP280;49419;51.716;-4.948;2022-07-03T01:42:15;101460.59;;;17.10
63297;BMP280;49419;51.716;-4.948;2022-07-03T01:44:41;101449.19;;;17.02
63297;BMP280;49419;51.716;-4.948;2022-07-03T01:47:09;101456.19;;;17.06
63297;BMP280;49419;51.716;-4.948;2022-07-03T01:49:37;101461.38;;;17.06
63297;BMP280;49419;51.716;-4.948;2022-07-03T01:52:10;101464.88;;;17.08
63297;BMP280;49419;51.716;-4.948;2022-07-03T01:54:46;101456.19;;;17.06
63297;BMP280;49419;51.716;-4.948;2022-07-03T01:57:14;101460.47;;;17.04
63297;BMP280;49419;51.716;-4.948;2022-07-03T01:59:42;101458.72;;;17.03
63297;BMP280;49419;51.716;-4.948;2022-07-03T02:02:14;101463.94;;;17.05
63297;BMP280;49419;51.716;-4.948;2022-07-03T02:04:58;101463.03;;;17.03
63297;BMP280;49419;51.716;-4.948;2022-07-03T02:10:29;101465.50;;;16.98
63297;BMP280;49419;51.716;-4.948;2022-07-03T02:13:07;101466.31;;;16.94
63297;BMP280;49419;51.716;-4.948;2022-07-03T02:15:36;101460.97;;;16.88
63297;BMP280;49419;51.716;-4.948;2022-07-03T02:18:25;101477.44;;;16.90
63297;BMP280;49419;51.716;-4.948;2022-07-03T02:21:15;101484.28;;;16.88
63297;BMP280;49419;51.716;-4.948;2022-07-03T02:26:32;101473.75;;;16.81
63297;BMP280;49419;51.716;-4.948;2022-07-03T02:29:02;101473.69;;;16.78
63297;BMP280;49419;51.716;-4.948;2022-07-03T02:31:37;101473.69;;;16.78
63297;BMP280;49419;51.716;-4.948;2022-07-03T02:34:17;101468.44;;;16.76
63297;BMP280;49419;51.716;-4.948;2022-07-03T02:36:47;101480.59;;;16.79
63297;BMP280;49419;51.716;-4.948;2022-07-03T02:39:27;101467.53;;;16.74
63297;BMP280;49419;51.716;-4.948;2022-07-03T02:42:12;101481.41;;;16.76
63297;BMP280;49419;51.716;-4.948;2022-07-03T02:44:45;101476.22;;;16.76
63297;BMP280;49419;51.716;-4.948;2022-07-03T02:47:27;101473.69;;;16.78
63297;BMP280;49419;51.716;-4.948;2022-07-03T02:50:11;101476.28;;;16.79
63297;BMP280;49419;51.716;-4.948;2022-07-03T02:52:59;101470.16;;;16.76
63297;BMP280;49419;51.716;-4.948;2022-07-03T02:55:46;101475.34;;;16.76
63297;BMP280;49419;51.716;-4.948;2022-07-03T03:01:29;101493.63;;;16.80
63297;BMP280;49419;51.716;-4.948;2022-07-03T03:04:19;101486.66;;;16.78
63297;BMP280;49419;51.716;-4.948;2022-07-03T03:07:01;101480.50;;;16.74
63297;BMP280;49419;51.716;-4.948;2022-07-03T03:09:32;101491.72;;;16.73
63297;BMP280;49419;51.716;-4.948;2022-07-03T03:12:01;101491.66;;;16.71
63297;BMP280;49419;51.716;-4.948;2022-07-03T03:14:39;101484.69;;;16.70
63297;BMP280;49419;51.716;-4.948;2022-07-03T03:17:13;101481.19;;;16.68
63297;BMP280;49419;51.716;-4.948;2022-07-03T03:19:46;101483.78;;;16.68
63297;BMP280;49419;51.716;-4.948;2022-07-03T03:25:15;101486.28;;;16.65
63297;BMP280;49419;51.716;-4.948;2022-07-03T03:27:43;101478.56;;;16.66
63297;BMP280;49419;51.716;-4.948;2022-07-03T03:30:09;101488.06;;;16.66
63297;BMP280;49419;51.716;-4.948;2022-07-03T03:32:40;101492.34;;;16.65
63297;BMP280;49419;51.716;-4.948;2022-07-03T03:35:12;101491.41;;;16.62
63297;BMP280;49419;51.716;-4.948;2022-07-03T03:37:39;101491.34;;;16.59
63297;BMP280;49419;51.716;-4.948;2022-07-03T03:40:05;101513.00;;;16.61
63297;BMP280;49419;51.716;-4.948;2022-07-03T03:42:30;101513.81;;;16.60
63297;BMP280;49419;51.716;-4.948;2022-07-03T03:44:56;101513.69;;;16.55
63297;BMP280;49419;51.716;-4.948;2022-07-03T03:47:22;101521.53;;;16.57
63297;BMP280;49419;51.716;-4.948;2022-07-03T03:49:50;101511.97;;;16.56
63297;BMP280;49419;51.716;-4.948;2022-07-03T03:52:16;101518.94;;;16.57
63297;BMP280;49419;51.716;-4.948;2022-07-03T03:54:42;101515.41;;;16.55
63297;BMP280;49419;51.716;-4.948;2022-07-03T03:57:24;101512.78;;;16.53
63297;BMP280;49419;51.716;-4.948;2022-07-03T03:59:50;101518.75;;;16.51
63297;BMP280;49419;51.716;-4.948;2022-07-03T04:02:17;101528.25;;;16.50
63297;BMP280;49419;51.716;-4.948;2022-07-03T04:04:45;101533.31;;;16.46
63297;BMP280;49419;51.716;-4.948;2022-07-03T04:07:12;101533.34;;;16.47
63297;BMP280;49419;51.716;-4.948;2022-07-03T04:09:38;101536.81;;;16.46
63297;BMP280;49419;51.716;-4.948;2022-07-03T04:12:07;101534.16;;;16.45
63297;BMP280;49419;51.716;-4.948;2022-07-03T04:14:33;101540.13;;;16.42
63297;BMP280;49419;51.716;-4.948;2022-07-03T04:16:59;101538.34;;;16.40
63297;BMP280;49419;51.716;-4.948;2022-07-03T04:19:25;101542.69;;;16.41
63297;BMP280;49419;51.716;-4.948;2022-07-03T04:21:52;101539.16;;;16.39
63297;BMP280;49419;51.716;-4.948;2022-07-03T04:24:18;101538.34;;;16.40
63297;BMP280;49419;51.716;-4.948;2022-07-03T04:26:44;101541.84;;;16.42
63297;BMP280;49419;51.716;-4.948;2022-07-03T04:29:11;101537.41;;;16.38
63297;BMP280;49419;51.716;-4.948;2022-07-03T04:31:36;101541.66;;;16.35
63297;BMP280;49419;51.716;-4.948;2022-07-03T04:34:03;101544.28;;;16.36
63297;BMP280;49419;51.716;-4.948;2022-07-03T04:36:30;101551.97;;;16.33
63297;BMP280;49419;51.716;-4.948;2022-07-03T04:38:56;101544.25;;;16.35
63297;BMP280;49419;51.716;-4.948;2022-07-03T04:41:21;101547.78;;;16.38
63297;BMP280;49419;51.716;-4.948;2022-07-03T04:43:48;101552.16;;;16.41
63297;BMP280;49419;51.716;-4.948;2022-07-03T04:46:14;101556.47;;;16.40
63297;BMP280;49419;51.716;-4.948;2022-07-03T04:48:41;101551.22;;;16.37
63297;BMP280;49419;51.716;-4.948;2022-07-03T04:51:11;101549.44;;;16.36
63297;BMP280;49419;51.716;-4.948;2022-07-03T04:53:36;101565.06;;;16.39
63297;BMP280;49419;51.716;-4.948;2022-07-03T04:56:02;101560.69;;;16.37
63297;BMP280;49419;51.716;-4.948;2022-07-03T04:58:29;101555.56;;;16.38
63297;BMP280;49419;51.716;-4.948;2022-07-03T05:00:56;101584.06;;;16.38
63297;BMP280;49419;51.716;-4.948;2022-07-03T05:03:27;101577.13;;;16.37
63297;BMP280;49419;51.716;-4.948;2022-07-03T05:05:53;101584.13;;;16.41
63297;BMP280;49419;51.716;-4.948;2022-07-03T05:08:22;101571.19;;;16.41
63297;BMP280;49419;51.716;-4.948;2022-07-03T05:10:47;101577.34;;;16.44
63297;BMP280;49419;51.716;-4.948;2022-07-03T05:13:13;101592.09;;;16.47
63297;BMP280;49419;51.716;-4.948;2022-07-03T05:15:38;101579.00;;;16.42
63297;BMP280;49419;51.716;-4.948;2022-07-03T05:18:04;101595.47;;;16.44
63297;BMP280;49419;51.716;-4.948;2022-07-03T05:20:31;101596.34;;;16.45
63297;BMP280;49419;51.716;-4.948;2022-07-03T05:23:01;101611.97;;;16.48
63297;BMP280;49419;51.716;-4.948;2022-07-03T05:25:27;101601.44;;;16.42
63297;BMP280;49419;51.716;-4.948;2022-07-03T05:27:57;101614.53;;;16.46
63297;BMP280;49419;51.716;-4.948;2022-07-03T05:30:24;101620.59;;;16.47
63297;BMP280;49419;51.716;-4.948;2022-07-03T05:32:50;101609.34;;;16.46
63297;BMP280;49419;51.716;-4.948;2022-07-03T05:35:17;101615.47;;;16.50
63297;BMP280;49419;51.716;-4.948;2022-07-03T05:37:44;101615.63;;;16.56
63297;BMP280;49419;51.716;-4.948;2022-07-03T05:40:11;101611.50;;;16.62
63297;BMP280;49419;51.716;-4.948;2022-07-03T05:42:36;101604.00;;;16.73
63297;BMP280;49419;51.716;-4.948;2022-07-03T05:45:09;101602.63;;;16.86
63297;BMP280;49419;51.716;-4.948;2022-07-03T05:47:36;101612.03;;;17.13
63297;BMP280;49419;51.716;-4.948;2022-07-03T05:50:03;101601.19;;;17.29
63297;BMP280;49419;51.716;-4.948;2022-07-03T05:52:29;101596.31;;;17.42
63297;BMP280;49419;51.716;-4.948;2022-07-03T05:54:57;101610.38;;;17.52
63297;BMP280;49419;51.716;-4.948;2022-07-03T05:57:26;101607.22;;;17.65
63297;BMP280;49419;51.716;-4.948;2022-07-03T05:59:52;101604.28;;;17.88
63297;BMP280;49419;51.716;-4.948;2022-07-03T06:02:20;101610.19;;;18.19
63297;BMP280;49419;51.716;-4.948;2022-07-03T06:04:50;101608.03;;;18.41
63297;BMP280;49419;51.716;-4.948;2022-07-03T06:07:15;101608.50;;;18.65
63297;BMP280;49419;51.716;-4.948;2022-07-03T06:09:42;101606.03;;;18.72
63297;BMP280;49419;51.716;-4.948;2022-07-03T06:12:09;101616.50;;;18.73
63297;BMP280;49419;51.716;-4.948;2022-07-03T06:14:38;101621.69;;;18.75
63297;BMP280;49419;51.716;-4.948;2022-07-03T06:17:03;101627.63;;;18.68
63297;BMP280;49419;51.716;-4.948;2022-07-03T06:19:34;101629.06;;;18.53
63297;BMP280;49419;51.716;-4.948;2022-07-03T06:22:00;101616.59;;;18.36
63297;BMP280;49419;51.716;-4.948;2022-07-03T06:24:31;101625.94;;;18.26
63297;BMP280;49419;51.716;-4.948;2022-07-03T06:26:56;101624.72;;;18.09
63297;BMP280;49419;51.716;-4.948;2022-07-03T06:29:22;101624.38;;;17.95
63297;BMP280;49419;51.716;-4.948;2022-07-03T06:31:52;101634.53;;;17.86
63297;BMP280;49419;51.716;-4.948;2022-07-03T06:34:19;101636.06;;;17.76
63297;BMP280;49419;51.716;-4.948;2022-07-03T06:36:45;101647.19;;;17.71
63297;BMP280;49419;51.716;-4.948;2022-07-03T06:39:11;101646.16;;;17.65
63297;BMP280;49419;51.716;-4.948;2022-07-03T06:41:38;101651.31;;;17.63
63297;BMP280;49419;51.716;-4.948;2022-07-03T06:44:06;101645.88;;;17.53
63297;BMP280;49419;51.716;-4.948;2022-07-03T06:46:36;101657.00;;;17.49
63297;BMP280;49419;51.716;-4.948;2022-07-03T06:49:02;101657.69;;;17.40
63297;BMP280;49419;51.716;-4.948;2022-07-03T06:51:31;101665.41;;;17.38
63297;BMP280;49419;51.716;-4.948;2022-07-03T06:54:01;101673.09;;;17.35
63297;BMP280;49419;51.716;-4.948;2022-07-03T06:56:30;101664.97;;;17.21
63297;BMP280;49419;51.716;-4.948;2022-07-03T06:59:06;101662.34;;;17.20
63297;BMP280;49419;51.716;-4.948;2022-07-03T07:01:34;101670.00;;;17.15
63297;BMP280;49419;51.716;-4.948;2022-07-03T07:04:00;101668.09;;;17.10
63297;BMP280;49419;51.716;-4.948;2022-07-03T07:06:27;101671.56;;;17.10
63297;BMP280;49419;51.716;-4.948;2022-07-03T07:08:55;101685.69;;;17.20
63297;BMP280;49419;51.716;-4.948;2022-07-03T07:11:22;101678.22;;;17.32
63297;BMP280;49419;51.716;-4.948;2022-07-03T07:13:47;101687.16;;;17.42
63297;BMP280;49419;51.716;-4.948;2022-07-03T07:16:24;101681.09;;;17.43
63297;BMP280;49419;51.716;-4.948;2022-07-03T07:18:50;101685.50;;;17.46
63297;BMP280;49419;51.716;-4.948;2022-07-03T07:21:24;101693.47;;;17.53
63297;BMP280;49419;51.716;-4.948;2022-07-03T07:24:03;101695.63;;;17.70
63297;BMP280;49419;51.716;-4.948;2022-07-03T07:26:30;101698.59;;;17.85
63297;BMP280;49419;51.716;-4.948;2022-07-03T07:29:03;101704.28;;;18.04
63297;BMP280;49419;51.716;-4.948;2022-07-03T07:31:28;101694.53;;;18.34
63297;BMP280;49419;51.716;-4.948;2022-07-03T07:34:22;101706.59;;;18.73
63297;BMP280;49419;51.716;-4.948;2022-07-03T07:36:47;101700.00;;;18.88
63297;BMP280;49419;51.716;-4.948;2022-07-03T07:39:16;101704.16;;;18.80
63297;BMP280;49419;51.716;-4.948;2022-07-03T07:41:46;101691.00;;;18.73
63297;BMP280;49419;51.716;-4.948;2022-07-03T07:44:11;101695.44;;;18.77
63297;BMP280;49419;51.716;-4.948;2022-07-03T07:46:40;101697.63;;;18.99
63297;BMP280;49419;51.716;-4.948;2022-07-03T07:49:06;101711.84;;;19.17
63297;BMP280;49419;51.716;-4.948;2022-07-03T07:51:36;101698.09;;;19.24
63297;BMP280;49419;51.716;-4.948;2022-07-03T07:54:02;101703.56;;;19.38
63297;BMP280;49419;51.716;-4.948;2022-07-03T07:56:27;101716.16;;;19.66
63297;BMP280;49419;51.716;-4.948;2022-07-03T07:58:59;101708.69;;;19.85
63297;BMP280;49419;51.716;-4.948;2022-07-03T08:01:25;101724.38;;;19.88
63297;BMP280;49419;51.716;-4.948;2022-07-03T08:04:09;101730.16;;;19.72
63297;BMP280;49419;51.716;-4.948;2022-07-03T08:06:53;101724.47;;;19.44
63297;BMP280;49419;51.716;-4.948;2022-07-03T08:09:42;101736.28;;;19.25
63297;BMP280;49419;51.716;-4.948;2022-07-03T08:18:16;101736.78;;;19.04
63297;BMP280;49419;51.716;-4.948;2022-07-03T08:21:04;101747.97;;;19.02
63297;BMP280;49419;51.716;-4.948;2022-07-03T08:24:08;101747.09;;;19.00
63297;BMP280;49419;51.716;-4.948;2022-07-03T08:26:33;101747.00;;;18.97
63297;BMP280;49419;51.716;-4.948;2022-07-03T08:28:59;101743.47;;;18.94
63297;BMP280;49419;51.716;-4.948;2022-07-03T08:31:25;101748.69;;;18.94
63297;BMP280;49419;51.716;-4.948;2022-07-03T08:33:50;101750.31;;;18.92
63297;BMP280;49419;51.716;-4.948;2022-07-03T08:36:16;101758.38;;;19.02
63297;BMP280;49419;51.716;-4.948;2022-07-03T08:38:42;101742.75;;;19.02
63297;BMP280;49419;51.716;-4.948;2022-07-03T08:41:15;101746.28;;;19.04
63297;BMP280;49419;51.716;-4.948;2022-07-03T08:43:42;101748.97;;;19.08
63297;BMP280;49419;51.716;-4.948;2022-07-03T08:46:11;101754.31;;;19.14
63297;BMP280;49419;51.716;-4.948;2022-07-03T08:48:40;101759.31;;;19.05
63297;BMP280;49419;51.716;-4.948;2022-07-03T08:51:08;101767.03;;;19.01
63297;BMP280;49419;51.716;-4.948;2022-07-03T08:53:38;101761.44;;;18.83
63297;BMP280;49419;51.716;-4.948;2022-07-03T08:56:07;101760.34;;;18.72
63297;BMP280;49419;51.716;-4.948;2022-07-03T08:58:44;101763.78;;;18.71
63297;BMP280;49419;51.716;-4.948;2022-07-03T09:01:15;101766.31;;;18.68
63297;BMP280;49419;51.716;-4.948;2022-07-03T09:03:42;101767.28;;;18.72
63297;BMP280;49419;51.716;-4.948;2022-07-03T09:06:12;101776.91;;;18.77
63297;BMP280;49419;51.716;-4.948;2022-07-03T09:08:40;101768.19;;;18.75
63297;BMP280;49419;51.716;-4.948;2022-07-03T09:11:14;101777.81;;;18.79
63297;BMP280;49419;51.716;-4.948;2022-07-03T09:13:40;101775.22;;;18.79
63297;BMP280;49419;51.716;-4.948;2022-07-03T09:16:27;101777.81;;;18.79
63297;BMP280;49419;51.716;-4.948;2022-07-03T09:18:53;101784.97;;;18.89
63297;BMP280;49419;51.716;-4.948;2022-07-03T09:21:22;101784.31;;;18.98
63297;BMP280;49419;51.716;-4.948;2022-07-03T09:23:52;101771.31;;;18.99
63297;BMP280;49419;51.716;-4.948;2022-07-03T09:26:18;101795.59;;;18.98
63297;BMP280;49419;51.716;-4.948;2022-07-03T09:28:54;101793.81;;;18.97
63297;BMP280;49419;51.716;-4.948;2022-07-03T09:31:25;101786.09;;;19.00
63297;BMP280;49419;51.716;-4.948;2022-07-03T09:34:07;101808.81;;;19.07
63297;BMP280;49419;51.716;-4.948;2022-07-03T09:36:46;101802.78;;;19.09
63297;BMP280;49419;51.716;-4.948;2022-07-03T09:39:19;101804.56;;;19.13
63297;BMP280;49419;51.716;-4.948;2022-07-03T09:41:54;101800.19;;;19.11
63297;BMP280;49419;51.716;-4.948;2022-07-03T09:44:38;101802.88;;;19.15
63297;BMP280;49419;51.716;-4.948;2022-07-03T09:47:19;101801.28;;;19.22
63297;BMP280;49419;51.716;-4.948;2022-07-03T09:50:04;101796.84;;;19.18
63297;BMP280;49419;51.716;-4.948;2022-07-03T09:52:42;101807.41;;;19.25
63297;BMP280;49419;51.716;-4.948;2022-07-03T09:55:16;101800.69;;;19.36
63297;BMP280;49419;51.716;-4.948;2022-07-03T10:03:05;101811.41;;;19.52
63297;BMP280;49419;51.716;-4.948;2022-07-03T10:05:41;101811.38;;;19.51
63297;BMP280;49419;51.716;-4.948;2022-07-03T10:08:09;101822.53;;;19.44
63297;BMP280;49419;51.716;-4.948;2022-07-03T10:10:46;101827.53;;;19.33
63297;BMP280;49419;51.716;-4.948;2022-07-03T10:13:18;101829.03;;;19.23
63297;BMP280;49419;51.716;-4.948;2022-07-03T10:15:47;101821.38;;;19.29
63297;BMP280;49419;51.716;-4.948;2022-07-03T10:18:14;101827.69;;;19.41
63297;BMP280;49419;51.716;-4.948;2022-07-03T10:20:45;101823.53;;;19.50
63297;BMP280;49419;51.716;-4.948;2022-07-03T10:23:11;101819.28;;;19.55
63297;BMP280;49419;51.716;-4.948;2022-07-03T10:25:40;101826.97;;;19.49
63297;BMP280;49419;51.716;-4.948;2022-07-03T10:28:11;101830.59;;;19.57
63297;BMP280;49419;51.716;-4.948;2022-07-03T10:30:47;101835.81;;;19.57
63297;BMP280;49419;51.716;-4.948;2022-07-03T10:33:14;101841.16;;;19.66
63297;BMP280;49419;51.716;-4.948;2022-07-03T10:35:51;101837.16;;;19.83
63297;BMP280;49419;51.716;-4.948;2022-07-03T10:38:38;101838.97;;;19.87
63297;BMP280;49419;51.716;-4.948;2022-07-03T10:41:34;101849.69;;;20.03
63297;BMP280;49419;51.716;-4.948;2022-07-03T10:44:24;101847.03;;;20.01
63297;BMP280;49419;51.716;-4.948;2022-07-03T10:47:47;101851.22;;;19.92
63297;BMP280;49419;51.716;-4.948;2022-07-03T10:50:33;101847.09;;;20.04
63297;BMP280;49419;51.716;-4.948;2022-07-03T10:53:21;101855.72;;;20.53
63297;BMP280;49419;51.716;-4.948;2022-07-03T10:56:03;101858.44;;;20.59
63297;BMP280;49419;51.716;-4.948;2022-07-03T10:58:30;101845.41;;;20.61
63297;BMP280;49419;51.716;-4.948;2022-07-03T11:00:57;101852.47;;;20.69
63297;BMP280;49419;51.716;-4.948;2022-07-03T11:09:11;101849.97;;;20.19
63297;BMP280;49419;51.716;-4.948;2022-07-03T11:11:49;101848.19;;;20.18
63297;BMP280;49419;51.716;-4.948;2022-07-03T11:14:26;101849.97;;;20.19
63297;BMP280;49419;51.716;-4.948;2022-07-03T11:17:20;101858.97;;;20.40
63297;BMP280;49419;51.716;-4.948;2022-07-03T11:19:49;101856.81;;;20.68
63297;BMP280;49419;51.716;-4.948;2022-07-03T11:22:44;101865.44;;;20.64
63297;BMP280;49419;51.716;-4.948;2022-07-03T11:25:17;101872.25;;;20.57
63297;BMP280;49419;51.716;-4.948;2022-07-03T11:27:54;101850.75;;;20.68
63297;BMP280;49419;51.716;-4.948;2022-07-03T11:30:20;101858.66;;;20.75
63297;BMP280;49419;51.716;-4.948;2022-07-03T11:32:50;101864.75;;;20.74
63297;BMP280;49419;51.716;-4.948;2022-07-03T11:35:51;101876.81;;;20.68
63297;BMP280;49419;51.716;-4.948;2022-07-03T11:38:27;101866.16;;;20.53
63297;BMP280;49419;51.716;-4.948;2022-07-03T11:40:57;101879.31;;;20.61
63297;BMP280;49419;51.716;-4.948;2022-07-03T11:43:23;101878.41;;;20.59
63297;BMP280;49419;51.716;-4.948;2022-07-03T11:45:49;101873.25;;;20.60
63297;BMP280;49419;51.716;-4.948;2022-07-03T11:48:28;101868.97;;;20.66
63297;BMP280;49419;51.716;-4.948;2022-07-03T11:51:02;101870.16;;;20.86
63297;BMP280;49419;51.716;-4.948;2022-07-03T11:53:31;101870.34;;;21.02
63297;BMP280;49419;51.716;-4.948;2022-07-03T11:56:12;101871.25;;;21.03
63297;BMP280;49419;51.716;-4.948;2022-07-03T11:58:57;101873.84;;;21.04
63297;BMP280;49419;51.716;-4.948;2022-07-03T12:01:33;101873.00;;;21.07
63297;BMP280;49419;51.716;-4.948;2022-07-03T12:06:38;101868.13;;;21.33
63297;BMP280;49419;51.716;-4.948;2022-07-03T12:09:20;101867.41;;;21.42
63297;BMP280;49419;51.716;-4.948;2022-07-03T12:12:00;101860.66;;;21.64
63297;BMP280;49419;51.716;-4.948;2022-07-03T12:14:37;101871.16;;;21.69
63297;BMP280;49419;51.716;-4.948;2022-07-03T12:17:06;101887.59;;;21.59
63297;BMP280;49419;51.716;-4.948;2022-07-03T12:19:37;101881.94;;;21.24
63297;BMP280;49419;51.716;-4.948;2022-07-03T12:22:06;101893.00;;;21.05
63297;BMP280;49419;51.716;-4.948;2022-07-03T12:24:33;101888.53;;;20.98
63297;BMP280;49419;51.716;-4.948;2022-07-03T12:27:02;101888.69;;;21.08
63297;BMP280;49419;51.716;-4.948;2022-07-03T12:29:34;101891.44;;;21.19
63297;BMP280;49419;51.716;-4.948;2022-07-03T12:32:07;101883.75;;;21.30
63297;BMP280;49419;51.716;-4.948;2022-07-03T12:34:36;101885.53;;;21.33
63297;BMP280;49419;51.716;-4.948;2022-07-03T12:37:02;101877.88;;;21.45
63297;BMP280;49419;51.716;-4.948;2022-07-03T12:39:47;101880.44;;;21.43
63297;BMP280;49419;51.716;-4.948;2022-07-03T12:42:14;101888.28;;;21.43
63297;BMP280;49419;51.716;-4.948;2022-07-03T12:44:40;101863.06;;;21.45
63297;BMP280;49419;51.716;-4.948;2022-07-03T12:47:07;101880.63;;;21.57
63297;BMP280;49419;51.716;-4.948;2022-07-03T12:49:34;101877.16;;;21.59
63297;BMP280;49419;51.716;-4.948;2022-07-03T12:52:03;101880.50;;;21.48
63297;BMP280;49419;51.716;-4.948;2022-07-03T12:57:07;101878.03;;;21.60
63297;BMP280;49419;51.716;-4.948;2022-07-03T13:00:14;101891.13;;;21.61
63297;BMP280;49419;51.716;-4.948;2022-07-03T13:02:42;101893.81;;;21.68
63297;BMP280;49419;51.716;-4.948;2022-07-03T13:05:24;101866.88;;;21.75
63297;BMP280;49419;51.716;-4.948;2022-07-03T13:07:55;101876.50;;;21.79
63297;BMP280;49419;51.716;-4.948;2022-07-03T13:10:24;101887.84;;;21.80
63297;BMP280;49419;51.716;-4.948;2022-07-03T13:12:58;101869.66;;;21.90
63297;BMP280;49419;51.716;-4.948;2022-07-03T13:15:27;101869.91;;;22.17
63297;BMP280;49419;51.716;-4.948;2022-07-03T13:18:03;101870.06;;;22.34
63297;BMP280;49419;51.716;-4.948;2022-07-03T13:20:33;101865.81;;;22.47
63297;BMP280;49419;51.716;-4.948;2022-07-03T13:23:09;101878.06;;;22.54
63297;BMP280;49419;51.716;-4.948;2022-07-03T13:25:37;101861.50;;;22.60
63297;BMP280;49419;51.716;-4.948;2022-07-03T13:28:11;101863.31;;;22.67
63297;BMP280;49419;51.716;-4.948;2022-07-03T13:30:38;101865.88;;;22.57
63297;BMP280;49419;51.716;-4.948;2022-07-03T13:33:07;101846.63;;;22.51
63297;BMP280;49419;51.716;-4.948;2022-07-03T13:35:34;101865.00;;;22.59
63297;BMP280;49419;51.716;-4.948;2022-07-03T13:38:00;101859.78;;;22.61
63297;BMP280;49419;51.716;-4.948;2022-07-03T13:40:26;101860.69;;;22.67
63297;BMP280;49419;51.716;-4.948;2022-07-03T13:42:51;101872.13;;;22.80
63297;BMP280;49419;51.716;-4.948;2022-07-03T13:45:18;101857.47;;;23.07
63297;BMP280;49419;51.716;-4.948;2022-07-03T13:47:51;101848.81;;;23.30
63297;BMP280;49419;51.716;-4.948;2022-07-03T13:50:18;101853.31;;;23.68
63297;BMP280;49419;51.716;-4.948;2022-07-03T13:52:47;101854.22;;;24.08
63297;BMP280;49419;51.716;-4.948;2022-07-03T13:55:15;101860.97;;;25.36
63297;BMP280;49419;51.716;-4.948;2022-07-03T13:57:41;101851.16;;;26.73
63297;BMP280;49419;51.716;-4.948;2022-07-03T14:00:10;101845.84;;;28.07
63297;BMP280;49419;51.716;-4.948;2022-07-03T14:02:40;101833.75;;;29.33
63297;BMP280;49419;51.716;-4.948;2022-07-03T14:05:06;101847.97;;;30.39
63297;BMP280;49419;51.716;-4.948;2022-07-03T14:07:40;101846.88;;;31.08
63297;BMP280;49419;51.716;-4.948;2022-07-03T14:10:09;101846.75;;;31.13
63297;BMP280;49419;51.716;-4.948;2022-07-03T14:12:34;101855.81;;;30.76
63297;BMP280;49419;51.716;-4.948;2022-07-03T14:15:00;101859.31;;;30.09
63297;BMP280;49419;51.716;-4.948;2022-07-03T14:17:27;101850.06;;;29.90
63297;BMP280;49419;51.716;-4.948;2022-07-03T14:19:53;101850.84;;;29.56
63297;BMP280;49419;51.716;-4.948;2022-07-03T14:22:19;101873.91;;;29.10
63297;BMP280;49419;51.716;-4.948;2022-07-03T14:24:50;101859.97;;;28.57
63297;BMP280;49419;51.716;-4.948;2022-07-03T14:27:18;101863.84;;;28.34
63297;BMP280;49419;51.716;-4.948;2022-07-03T14:30:04;101871.88;;;28.28
63297;BMP280;49419;51.716;-4.948;2022-07-03T14:32:51;101868.03;;;28.46
63297;BMP280;49419;51.716;-4.948;2022-07-03T14:35:17;101874.47;;;28.80
63297;BMP280;49419;51.716;-4.948;2022-07-03T14:37:42;101854.31;;;29.19
63297;BMP280;49419;51.716;-4.948;2022-07-03T14:40:09;101856.41;;;29.83
63297;BMP280;49419;51.716;-4.948;2022-07-03T14:42:36;101863.75;;;30.43
63297;BMP280;49419;51.716;-4.948;2022-07-03T14:45:02;101844.06;;;30.84
63297;BMP280;49419;51.716;-4.948;2022-07-03T14:47:27;101853.31;;;31.30
63297;BMP280;49419;51.716;-4.948;2022-07-03T14:49:54;101864.22;;;32.06
63297;BMP280;49419;51.716;-4.948;2022-07-03T14:52:20;101866.38;;;32.96
63297;BMP280;49419;51.716;-4.948;2022-07-03T14:54:45;101860.34;;;33.38
63297;BMP280;49419;51.716;-4.948;2022-07-03T14:57:40;101860.44;;;34.01
63297;BMP280;49419;51.716;-4.948;2022-07-03T15:00:13;101862.84;;;34.28